createdAt,value
2023-04-01T00:00:07.676Z,0.00
2023-04-01T00:01:07.673Z,0.00
2023-04-01T00:02:07.742Z,0.00
2023-04-01T00:03:07.740Z,0.00
2023-04-01T00:04:07.707Z,0.00
2023-04-01T00:05:07.679Z,0.00
2023-04-01T00:06:07.661Z,0.00
2023-04-01T00:07:07.646Z,0.00
2023-04-01T00:08:07.642Z,0.00
2023-04-01T00:09:07.636Z,0.00
2023-04-01T00:10:07.636Z,0.00
2023-04-01T00:11:07.647Z,0.00
2023-04-01T00:12:07.631Z,0.00
2023-04-01T00:13:07.623Z,0.00
2023-04-01T00:14:07.626Z,0.00
2023-04-01T00:15:07.620Z,0.00
2023-04-01T00:16:17.887Z,0.00
2023-04-01T00:17:07.752Z,0.00
2023-04-01T00:18:07.679Z,0.00
2023-04-01T00:19:07.602Z,0.00
2023-04-01T00:20:07.600Z,0.00
2023-04-01T00:21:07.632Z,0.00
2023-04-01T00:22:07.594Z,0.00
2023-04-01T00:23:07.587Z,0.00
2023-04-01T00:24:07.588Z,0.00
2023-04-01T00:25:07.580Z,0.00
2023-04-01T00:26:07.588Z,0.00
2023-04-01T00:27:07.591Z,0.00
2023-04-01T00:28:07.581Z,0.00
2023-04-01T00:29:07.568Z,0.00
2023-04-01T00:30:07.570Z,0.00
2023-04-01T00:31:07.865Z,0.00
2023-04-01T00:32:07.638Z,0.00
2023-04-01T00:33:07.619Z,0.00
2023-04-01T00:34:07.555Z,0.00
2023-04-01T00:35:07.551Z,0.00
2023-04-01T00:36:07.555Z,0.00
2023-04-01T00:37:07.565Z,0.00
2023-04-01T00:38:07.558Z,0.00
2023-04-01T00:39:07.545Z,0.00
2023-04-01T00:40:07.561Z,0.00
2023-04-01T00:41:07.549Z,0.00
2023-04-01T00:42:07.525Z,0.00
2023-04-01T00:43:07.519Z,0.00
2023-04-01T00:44:07.519Z,0.00
2023-04-01T00:45:07.514Z,0.00
2023-04-01T00:46:07.512Z,0.00
2023-04-01T00:47:07.566Z,0.00
2023-04-01T00:48:07.616Z,0.00
2023-04-01T00:49:07.511Z,0.00
2023-04-01T00:50:07.504Z,0.00
2023-04-01T00:51:07.499Z,0.00
2023-04-01T00:52:07.490Z,0.00
2023-04-01T00:53:07.526Z,0.00
2023-04-01T00:54:07.485Z,0.00
2023-04-01T00:55:07.483Z,0.00
2023-04-01T00:56:07.484Z,0.00
2023-04-01T00:57:07.521Z,0.00
2023-04-01T00:58:07.475Z,0.00
2023-04-01T00:59:07.477Z,0.00
2023-04-01T01:00:07.461Z,0.00
2023-04-01T01:01:07.484Z,0.00
2023-04-01T01:02:07.488Z,0.00
2023-04-01T01:03:07.457Z,0.00
2023-04-01T01:04:07.445Z,0.00
2023-04-01T01:05:07.447Z,0.00
2023-04-01T01:06:07.440Z,0.00
2023-04-01T01:07:07.434Z,0.00
2023-04-01T01:08:07.457Z,0.00
2023-04-01T01:09:07.455Z,0.00
2023-04-01T01:10:07.423Z,0.00
2023-04-01T01:11:07.423Z,0.00
2023-04-01T01:12:07.432Z,0.00
2023-04-01T01:13:07.432Z,0.00
2023-04-01T01:14:07.409Z,0.00
2023-04-01T01:15:07.414Z,0.00
2023-04-01T01:16:07.448Z,0.00
2023-04-01T01:17:07.397Z,0.00
2023-04-01T01:18:07.492Z,0.00
2023-04-01T01:19:07.393Z,0.00
2023-04-01T01:20:12.742Z,0.00
2023-04-01T01:21:07.394Z,0.00
2023-04-01T01:22:07.387Z,0.00
2023-04-01T01:23:07.383Z,0.00
2023-04-01T01:24:07.386Z,0.00
2023-04-01T01:25:07.392Z,0.00
2023-04-01T01:26:07.376Z,0.00
2023-04-01T01:27:07.375Z,0.00
2023-04-01T01:28:07.363Z,0.00
2023-04-01T01:29:07.363Z,0.00
2023-04-01T01:30:07.424Z,0.00
2023-04-01T01:31:07.552Z,0.00
2023-04-01T01:32:07.345Z,0.00
2023-04-01T01:33:07.380Z,0.00
2023-04-01T01:34:07.341Z,0.00
2023-04-01T01:35:07.332Z,0.00
2023-04-01T01:36:07.432Z,0.00
2023-04-01T01:37:07.323Z,0.00
2023-04-01T01:38:07.322Z,0.00
2023-04-01T01:39:07.347Z,0.00
2023-04-01T01:40:07.314Z,0.00
2023-04-01T01:41:07.329Z,0.00
2023-04-01T01:42:07.323Z,0.00
2023-04-01T01:43:07.310Z,0.00
2023-04-01T01:44:07.306Z,0.00
2023-04-01T01:45:07.299Z,0.00
2023-04-01T01:46:07.309Z,0.00
2023-04-01T01:47:07.290Z,0.00
2023-04-01T01:48:07.375Z,0.00
2023-04-01T01:49:07.280Z,0.00
2023-04-01T01:50:07.276Z,0.00
2023-04-01T01:51:07.273Z,0.00
2023-04-01T01:52:07.277Z,0.00
2023-04-01T01:53:07.269Z,0.00
2023-04-01T01:54:07.266Z,0.00
2023-04-01T01:55:07.262Z,0.00
2023-04-01T01:56:07.256Z,0.00
2023-04-01T01:57:07.296Z,0.00
2023-04-01T01:58:07.250Z,0.00
2023-04-01T01:59:07.260Z,0.00
2023-04-01T02:00:07.243Z,0.00
2023-04-01T02:01:07.271Z,0.00
2023-04-01T02:02:07.236Z,0.00
2023-04-01T02:03:07.356Z,0.00
2023-04-01T02:04:07.272Z,0.00
2023-04-01T02:05:07.237Z,0.00
2023-04-01T02:06:07.233Z,0.00
2023-04-01T02:07:07.245Z,0.00
2023-04-01T02:08:07.212Z,0.00
2023-04-01T02:09:07.208Z,0.00
2023-04-01T02:10:07.204Z,0.00
2023-04-01T02:11:07.206Z,0.00
2023-04-01T02:12:07.202Z,0.00
2023-04-01T02:13:07.211Z,0.00
2023-04-01T02:14:07.201Z,0.00
2023-04-01T02:15:07.183Z,0.00
2023-04-01T02:16:07.226Z,0.00
2023-04-01T02:17:07.194Z,0.00
2023-04-01T02:18:07.187Z,0.00
2023-04-01T02:19:07.173Z,0.00
2023-04-01T02:20:07.172Z,0.00
2023-04-01T02:21:07.164Z,0.00
2023-04-01T02:22:07.159Z,0.00
2023-04-01T02:23:07.155Z,0.00
2023-04-01T02:24:07.159Z,0.00
2023-04-01T02:25:07.150Z,0.00
2023-04-01T02:26:07.152Z,0.00
2023-04-01T02:27:07.143Z,0.00
2023-04-01T02:28:07.142Z,0.00
2023-04-01T02:29:07.156Z,0.00
2023-04-01T02:30:07.146Z,0.00
2023-04-01T02:31:07.622Z,0.00
2023-04-01T02:32:07.124Z,0.00
2023-04-01T02:33:07.227Z,0.00
2023-04-01T02:34:07.158Z,0.00
2023-04-01T02:35:07.119Z,0.00
2023-04-01T02:36:07.152Z,0.00
2023-04-01T02:37:07.104Z,0.00
2023-04-01T02:38:07.104Z,0.00
2023-04-01T02:39:07.094Z,0.00
2023-04-01T02:40:07.096Z,0.00
2023-04-01T02:41:07.094Z,0.00
2023-04-01T02:42:07.085Z,0.00
2023-04-01T02:43:07.086Z,0.00
2023-04-01T02:44:07.074Z,0.00
2023-04-01T02:45:07.094Z,0.00
2023-04-01T02:46:07.072Z,0.00
2023-04-01T02:47:07.220Z,0.00
2023-04-01T02:48:07.107Z,0.00
2023-04-01T02:49:07.069Z,0.00
2023-04-01T02:50:07.070Z,0.00
2023-04-01T02:51:07.060Z,0.00
2023-04-01T02:52:07.052Z,0.00
2023-04-01T02:53:07.054Z,0.00
2023-04-01T02:54:07.072Z,0.00
2023-04-01T02:55:07.059Z,0.00
2023-04-01T02:56:07.036Z,0.00
2023-04-01T02:57:07.045Z,0.00
2023-04-01T02:58:07.037Z,0.00
2023-04-01T02:59:07.029Z,0.00
2023-04-01T03:00:07.037Z,0.00
2023-04-01T03:01:07.099Z,0.00
2023-04-01T03:02:07.052Z,0.00
2023-04-01T03:03:07.102Z,0.00
2023-04-01T03:04:07.009Z,0.00
2023-04-01T03:05:07.008Z,0.00
2023-04-01T03:06:07.005Z,0.00
2023-04-01T03:07:07.002Z,0.00
2023-04-01T03:08:06.994Z,0.00
2023-04-01T03:09:06.995Z,0.00
2023-04-01T03:10:07.004Z,0.00
2023-04-01T03:11:07.007Z,0.00
2023-04-01T03:12:06.978Z,0.00
2023-04-01T03:13:06.976Z,0.00
2023-04-01T03:14:06.988Z,0.00
2023-04-01T03:15:13.933Z,0.00
2023-04-01T03:16:06.991Z,0.00
2023-04-01T03:17:06.985Z,0.00
2023-04-01T03:18:07.028Z,0.00
2023-04-01T03:19:06.973Z,0.00
2023-04-01T03:20:06.971Z,0.00
2023-04-01T03:21:06.949Z,0.00
2023-04-01T03:22:06.951Z,0.00
2023-04-01T03:23:06.943Z,0.00
2023-04-01T03:24:06.935Z,0.00
2023-04-01T03:25:06.935Z,0.00
2023-04-01T03:26:06.928Z,0.00
2023-04-01T03:27:06.944Z,0.00
2023-04-01T03:28:06.919Z,0.00
2023-04-01T03:29:06.921Z,0.00
2023-04-01T03:30:06.971Z,0.00
2023-04-01T03:31:06.926Z,0.00
2023-04-01T03:32:06.903Z,0.00
2023-04-01T03:33:06.974Z,0.00
2023-04-01T03:34:06.897Z,0.00
2023-04-01T03:35:06.894Z,0.00
2023-04-01T03:36:06.927Z,0.00
2023-04-01T03:37:06.891Z,0.00
2023-04-01T03:38:06.882Z,0.00
2023-04-01T03:39:06.878Z,0.00
2023-04-01T03:40:06.870Z,0.00
2023-04-01T03:41:06.870Z,0.00
2023-04-01T03:42:06.866Z,0.00
2023-04-01T03:43:06.880Z,0.00
2023-04-01T03:44:06.868Z,0.00
2023-04-01T03:45:06.857Z,0.00
2023-04-01T03:46:06.899Z,0.00
2023-04-01T03:47:06.850Z,0.00
2023-04-01T03:48:06.899Z,0.00
2023-04-01T03:49:06.865Z,0.00
2023-04-01T03:50:06.838Z,0.00
2023-04-01T03:51:06.835Z,0.00
2023-04-01T03:52:06.841Z,0.00
2023-04-01T03:53:06.827Z,0.00
2023-04-01T03:54:06.824Z,0.00
2023-04-01T03:55:06.818Z,0.00
2023-04-01T03:56:06.815Z,0.00
2023-04-01T03:57:06.829Z,0.00
2023-04-01T03:58:06.826Z,0.00
2023-04-01T03:59:06.823Z,0.00
2023-04-01T04:00:06.806Z,0.00
2023-04-01T04:01:06.805Z,0.00
2023-04-01T04:02:06.795Z,0.00
2023-04-01T04:03:06.830Z,0.00
2023-04-01T04:04:06.824Z,0.00
2023-04-01T04:05:06.807Z,0.00
2023-04-01T04:06:06.806Z,0.00
2023-04-01T04:07:06.776Z,0.00
2023-04-01T04:08:06.773Z,0.00
2023-04-01T04:09:06.774Z,0.00
2023-04-01T04:10:06.769Z,0.00
2023-04-01T04:11:06.772Z,0.00
2023-04-01T04:12:06.760Z,0.00
2023-04-01T04:13:06.759Z,0.00
2023-04-01T04:14:06.751Z,0.00
2023-04-01T04:15:06.749Z,0.00
2023-04-01T04:16:06.798Z,0.00
2023-04-01T04:17:06.748Z,0.00
2023-04-01T04:18:06.775Z,0.00
2023-04-01T04:19:06.734Z,0.00
2023-04-01T04:20:06.726Z,0.00
2023-04-01T04:21:06.746Z,0.00
2023-04-01T04:22:06.722Z,0.00
2023-04-01T04:23:06.719Z,0.00
2023-04-01T04:24:06.712Z,0.00
2023-04-01T04:25:06.709Z,0.00
2023-04-01T04:26:06.716Z,0.00
2023-04-01T04:27:06.704Z,0.00
2023-04-01T04:28:06.700Z,0.00
2023-04-01T04:29:06.698Z,0.00
2023-04-01T04:30:06.705Z,0.00
2023-04-01T04:31:06.696Z,0.00
2023-04-01T04:32:06.731Z,0.00
2023-04-01T04:33:06.726Z,0.00
2023-04-01T04:34:06.672Z,0.00
2023-04-01T04:35:06.670Z,0.00
2023-04-01T04:36:06.715Z,0.00
2023-04-01T04:37:06.688Z,0.00
2023-04-01T04:38:06.662Z,0.00
2023-04-01T04:39:06.656Z,0.00
2023-04-01T04:40:06.656Z,0.00
2023-04-01T04:41:06.649Z,0.00
2023-04-01T04:42:06.642Z,0.00
2023-04-01T04:43:06.641Z,0.00
2023-04-01T04:44:06.640Z,0.00
2023-04-01T04:45:06.636Z,0.00
2023-04-01T04:46:06.628Z,0.00
2023-04-01T04:47:06.671Z,0.00
2023-04-01T04:48:06.648Z,0.00
2023-04-01T04:49:06.621Z,0.00
2023-04-01T04:50:06.615Z,0.00
2023-04-01T04:51:06.608Z,0.00
2023-04-01T04:52:06.605Z,0.00
2023-04-01T04:53:06.621Z,0.00
2023-04-01T04:54:06.601Z,0.00
2023-04-01T04:55:06.596Z,0.00
2023-04-01T04:56:06.593Z,0.00
2023-04-01T04:57:06.632Z,0.00
2023-04-01T04:58:06.582Z,0.00
2023-04-01T04:59:06.585Z,0.00
2023-04-01T05:00:06.593Z,0.00
2023-04-01T05:01:06.631Z,0.00
2023-04-01T05:02:06.599Z,0.00
2023-04-01T05:03:06.675Z,0.00
2023-04-01T05:04:06.563Z,0.00
2023-04-01T05:05:06.564Z,0.00
2023-04-01T05:06:06.561Z,4.00
2023-04-01T05:07:06.559Z,0.00
2023-04-01T05:08:06.548Z,0.00
2023-04-01T05:09:06.563Z,4.00
2023-04-01T05:10:06.544Z,4.00
2023-04-01T05:11:06.538Z,4.00
2023-04-01T05:12:06.531Z,4.00
2023-04-01T05:13:06.527Z,4.00
2023-04-01T05:14:06.529Z,0.00
2023-04-01T05:15:06.536Z,4.00
2023-04-01T05:16:06.514Z,4.00
2023-04-01T05:17:06.586Z,4.00
2023-04-01T05:18:06.543Z,4.00
2023-04-01T05:19:06.521Z,4.00
2023-04-01T05:20:06.504Z,4.00
2023-04-01T05:21:06.509Z,4.00
2023-04-01T05:22:06.501Z,4.00
2023-04-01T05:23:06.500Z,4.00
2023-04-01T05:24:06.485Z,4.00
2023-04-01T05:25:06.504Z,4.00
2023-04-01T05:26:06.484Z,8.00
2023-04-01T05:27:06.479Z,8.00
2023-04-01T05:28:06.470Z,8.00
2023-04-01T05:29:06.469Z,8.00
2023-04-01T05:30:06.466Z,8.00
2023-04-01T05:31:06.554Z,4.00
2023-04-01T05:32:06.456Z,8.00
2023-04-01T05:33:06.526Z,8.00
2023-04-01T05:34:06.455Z,8.00
2023-04-01T05:35:06.447Z,8.00
2023-04-01T05:36:06.650Z,8.00
2023-04-01T05:37:06.439Z,12.00
2023-04-01T05:38:08.119Z,12.00
2023-04-01T05:39:06.443Z,8.00
2023-04-01T05:40:06.433Z,8.00
2023-04-01T05:41:06.460Z,12.00
2023-04-01T05:42:06.423Z,12.00
2023-04-01T05:43:06.431Z,8.00
2023-04-01T05:44:06.416Z,8.00
2023-04-01T05:45:06.512Z,12.00
2023-04-01T05:46:06.421Z,12.00
2023-04-01T05:47:06.414Z,12.00
2023-04-01T05:48:06.432Z,8.00
2023-04-01T05:49:06.399Z,12.00
2023-04-01T05:50:06.390Z,16.00
2023-04-01T05:51:06.408Z,12.00
2023-04-01T05:52:06.389Z,12.00
2023-04-01T05:53:06.381Z,12.00
2023-04-01T05:54:06.376Z,12.00
2023-04-01T05:55:06.384Z,12.00
2023-04-01T05:56:06.373Z,12.00
2023-04-01T05:57:06.458Z,12.00
2023-04-01T05:58:06.367Z,16.00
2023-04-01T05:59:06.360Z,12.00
2023-04-01T06:00:06.349Z,12.00
2023-04-01T06:01:11.278Z,12.00
2023-04-01T06:02:06.345Z,12.00
2023-04-01T06:03:06.470Z,12.00
2023-04-01T06:04:06.473Z,12.00
2023-04-01T06:05:06.341Z,12.00
2023-04-01T06:06:06.336Z,16.00
2023-04-01T06:07:06.330Z,12.00
2023-04-01T06:08:06.324Z,12.00
2023-04-01T06:09:06.320Z,16.00
2023-04-01T06:10:06.313Z,16.00
2023-04-01T06:11:06.317Z,12.00
2023-04-01T06:12:06.315Z,12.00
2023-04-01T06:13:06.324Z,12.00
2023-04-01T06:14:06.317Z,16.00
2023-04-01T06:15:06.304Z,20.00
2023-04-01T06:16:06.334Z,24.00
2023-04-01T06:17:06.293Z,20.00
2023-04-01T06:18:06.325Z,20.00
2023-04-01T06:19:06.285Z,24.00
2023-04-01T06:20:06.283Z,28.00
2023-04-01T06:21:06.274Z,32.00
2023-04-01T06:22:06.270Z,40.00
2023-04-01T06:23:06.269Z,36.00
2023-04-01T06:24:06.292Z,36.00
2023-04-01T06:25:06.269Z,44.00
2023-04-01T06:26:06.264Z,48.00
2023-04-01T06:27:06.254Z,56.00
2023-04-01T06:28:08.908Z,48.00
2023-04-01T06:29:06.265Z,48.00
2023-04-01T06:30:06.241Z,44.00
2023-04-01T06:31:06.252Z,68.00
2023-04-01T06:32:06.286Z,60.00
2023-04-01T06:33:06.280Z,52.00
2023-04-01T06:34:06.227Z,52.00
2023-04-01T06:35:06.234Z,68.00
2023-04-01T06:36:06.306Z,60.00
2023-04-01T06:37:06.239Z,68.00
2023-04-01T06:38:06.216Z,92.00
2023-04-01T06:39:06.585Z,92.00
2023-04-01T06:40:06.203Z,92.00
2023-04-01T06:41:06.211Z,80.00
2023-04-01T06:42:06.205Z,84.00
2023-04-01T06:43:06.210Z,68.00
2023-04-01T06:44:06.188Z,56.00
2023-04-01T06:45:06.210Z,52.00
2023-04-01T06:46:06.212Z,48.00
2023-04-01T06:47:06.197Z,60.00
2023-04-01T06:48:06.211Z,44.00
2023-04-01T06:49:06.174Z,60.00
2023-04-01T06:50:06.176Z,48.00
2023-04-01T06:51:06.180Z,60.00
2023-04-01T06:52:06.167Z,52.00
2023-04-01T06:53:06.230Z,64.00
2023-04-01T06:54:06.174Z,60.00
2023-04-01T06:55:06.157Z,68.00
2023-04-01T06:56:06.146Z,80.00
2023-04-01T06:57:06.174Z,52.00
2023-04-01T06:58:06.138Z,64.00
2023-04-01T06:59:06.149Z,80.00
2023-04-01T07:00:06.135Z,64.00
2023-04-01T07:01:06.185Z,64.00
2023-04-01T07:02:06.136Z,60.00
2023-04-01T07:03:06.984Z,64.00
2023-04-01T07:04:06.172Z,56.00
2023-04-01T07:05:06.111Z,60.00
2023-04-01T07:06:06.108Z,60.00
2023-04-01T07:07:06.105Z,72.00
2023-04-01T07:08:06.099Z,64.00
2023-04-01T07:09:06.259Z,84.00
2023-04-01T07:10:06.093Z,88.00
2023-04-01T07:11:06.092Z,92.00
2023-04-01T07:12:06.179Z,100.00
2023-04-01T07:13:06.088Z,100.00
2023-04-01T07:14:06.090Z,108.00
2023-04-01T07:15:06.079Z,108.00
2023-04-01T07:16:06.085Z,92.00
2023-04-01T07:17:06.148Z,104.00
2023-04-01T07:18:06.134Z,100.00
2023-04-01T07:19:06.055Z,96.00
2023-04-01T07:20:06.058Z,92.00
2023-04-01T07:21:06.051Z,92.00
2023-04-01T07:22:06.043Z,104.00
2023-04-01T07:23:06.040Z,104.00
2023-04-01T07:24:06.051Z,96.00
2023-04-01T07:25:06.031Z,96.00
2023-04-01T07:26:06.028Z,92.00
2023-04-01T07:27:06.021Z,96.00
2023-04-01T07:28:06.034Z,112.00
2023-04-01T07:29:06.018Z,120.00
2023-04-01T07:30:06.027Z,96.00
2023-04-01T07:31:06.077Z,132.00
2023-04-01T07:32:06.004Z,136.00
2023-04-01T07:33:06.038Z,128.00
2023-04-01T07:34:05.997Z,124.00
2023-04-01T07:35:05.991Z,124.00
2023-04-01T07:36:05.985Z,140.00
2023-04-01T07:37:05.982Z,152.00
2023-04-01T07:38:05.984Z,116.00
2023-04-01T07:39:05.979Z,116.00
2023-04-01T07:40:05.977Z,120.00
2023-04-01T07:41:06.421Z,116.00
2023-04-01T07:42:05.979Z,124.00
2023-04-01T07:43:05.969Z,116.00
2023-04-01T07:44:05.959Z,128.00
2023-04-01T07:45:05.964Z,144.00
2023-04-01T07:46:06.002Z,136.00
2023-04-01T07:47:05.955Z,120.00
2023-04-01T07:48:05.984Z,132.00
2023-04-01T07:49:05.960Z,108.00
2023-04-01T07:50:05.938Z,112.00
2023-04-01T07:51:05.934Z,100.00
2023-04-01T07:52:05.942Z,100.00
2023-04-01T07:53:05.927Z,116.00
2023-04-01T07:54:05.928Z,132.00
2023-04-01T07:55:05.920Z,112.00
2023-04-01T07:56:05.945Z,108.00
2023-04-01T07:57:05.953Z,116.00
2023-04-01T07:58:05.914Z,132.00
2023-04-01T07:59:05.904Z,116.00
2023-04-01T08:00:05.904Z,124.00
2023-04-01T08:01:05.895Z,120.00
2023-04-01T08:02:05.901Z,112.00
2023-04-01T08:03:05.937Z,132.00
2023-04-01T08:04:06.233Z,120.00
2023-04-01T08:05:05.930Z,132.00
2023-04-01T08:06:05.884Z,124.00
2023-04-01T08:07:05.890Z,116.00
2023-04-01T08:08:05.880Z,112.00
2023-04-01T08:09:05.879Z,100.00
2023-04-01T08:10:05.863Z,132.00
2023-04-01T08:11:05.860Z,120.00
2023-04-01T08:12:05.854Z,124.00
2023-04-01T08:13:05.848Z,136.00
2023-04-01T08:14:05.847Z,120.00
2023-04-01T08:15:05.839Z,120.00
2023-04-01T08:16:05.851Z,164.00
2023-04-01T08:17:05.835Z,148.00
2023-04-01T08:18:05.894Z,152.00
2023-04-01T08:19:05.826Z,156.00
2023-04-01T08:20:05.827Z,144.00
2023-04-01T08:21:05.832Z,160.00
2023-04-01T08:22:05.827Z,184.00
2023-04-01T08:23:05.808Z,196.00
2023-04-01T08:24:05.807Z,200.00
2023-04-01T08:25:05.796Z,192.00
2023-04-01T08:26:05.793Z,252.00
2023-04-01T08:27:05.789Z,204.00
2023-04-01T08:28:05.803Z,276.00
2023-04-01T08:29:05.788Z,240.00
2023-04-01T08:30:05.783Z,260.00
2023-04-01T08:31:05.777Z,252.00
2023-04-01T08:32:05.813Z,260.00
2023-04-01T08:33:05.801Z,252.00
2023-04-01T08:34:05.794Z,268.00
2023-04-01T08:35:05.759Z,280.00
2023-04-01T08:36:05.780Z,236.00
2023-04-01T08:37:05.781Z,240.00
2023-04-01T08:38:05.751Z,248.00
2023-04-01T08:39:05.751Z,228.00
2023-04-01T08:40:05.748Z,236.00
2023-04-01T08:41:05.737Z,220.00
2023-04-01T08:42:05.746Z,244.00
2023-04-01T08:43:05.728Z,244.00
2023-04-01T08:44:05.725Z,244.00
2023-04-01T08:45:05.763Z,232.00
2023-04-01T08:46:05.754Z,176.00
2023-04-01T08:47:05.718Z,192.00
2023-04-01T08:48:05.750Z,204.00
2023-04-01T08:49:05.703Z,180.00
2023-04-01T08:50:05.704Z,228.00
2023-04-01T08:51:06.739Z,204.00
2023-04-01T08:52:05.697Z,240.00
2023-04-01T08:53:05.716Z,224.00
2023-04-01T08:54:05.690Z,312.00
2023-04-01T08:55:05.682Z,248.00
2023-04-01T08:56:05.683Z,196.00
2023-04-01T08:57:05.710Z,188.00
2023-04-01T08:58:05.674Z,224.00
2023-04-01T08:59:05.691Z,172.00
2023-04-01T09:00:05.678Z,196.00
2023-04-01T09:01:05.666Z,200.00
2023-04-01T09:02:05.743Z,196.00
2023-04-01T09:03:05.753Z,168.00
2023-04-01T09:04:05.690Z,200.00
2023-04-01T09:05:05.652Z,216.00
2023-04-01T09:06:05.652Z,252.00
2023-04-01T09:07:05.637Z,276.00
2023-04-01T09:08:05.643Z,256.00
2023-04-01T09:09:05.648Z,276.00
2023-04-01T09:10:05.628Z,252.00
2023-04-01T09:11:05.620Z,256.00
2023-04-01T09:12:05.654Z,240.00
2023-04-01T09:13:05.611Z,232.00
2023-04-01T09:14:05.610Z,192.00
2023-04-01T09:15:05.604Z,196.00
2023-04-01T09:16:05.632Z,168.00
2023-04-01T09:17:05.596Z,168.00
2023-04-01T09:18:05.639Z,200.00
2023-04-01T09:19:05.589Z,200.00
2023-04-01T09:20:05.641Z,204.00
2023-04-01T09:21:05.585Z,176.00
2023-04-01T09:22:05.583Z,136.00
2023-04-01T09:23:05.585Z,156.00
2023-04-01T09:24:05.574Z,160.00
2023-04-01T09:25:05.593Z,148.00
2023-04-01T09:26:05.567Z,164.00
2023-04-01T09:27:05.571Z,156.00
2023-04-01T09:28:05.564Z,176.00
2023-04-01T09:29:05.557Z,152.00
2023-04-01T09:30:05.553Z,136.00
2023-04-01T09:31:05.586Z,132.00
2023-04-01T09:32:05.547Z,144.00
2023-04-01T09:33:05.569Z,132.00
2023-04-01T09:34:05.544Z,160.00
2023-04-01T09:35:05.534Z,124.00
2023-04-01T09:36:05.575Z,180.00
2023-04-01T09:37:05.532Z,212.00
2023-04-01T09:38:05.529Z,220.00
2023-04-01T09:39:05.522Z,180.00
2023-04-01T09:40:05.518Z,180.00
2023-04-01T09:41:05.533Z,184.00
2023-04-01T09:42:05.523Z,172.00
2023-04-01T09:43:05.506Z,184.00
2023-04-01T09:44:05.548Z,212.00
2023-04-01T09:45:05.508Z,208.00
2023-04-01T09:46:05.510Z,208.00
2023-04-01T09:47:05.498Z,180.00
2023-04-01T09:48:05.506Z,160.00
2023-04-01T09:49:05.490Z,212.00
2023-04-01T09:50:05.480Z,180.00
2023-04-01T09:51:05.481Z,176.00
2023-04-01T09:52:05.474Z,156.00
2023-04-01T09:53:05.467Z,164.00
2023-04-01T09:54:05.480Z,180.00
2023-04-01T09:55:05.458Z,156.00
2023-04-01T09:56:05.454Z,152.00
2023-04-01T09:57:05.521Z,144.00
2023-04-01T09:58:05.449Z,156.00
2023-04-01T09:59:05.467Z,152.00
2023-04-01T10:00:05.448Z,168.00
2023-04-01T10:01:05.431Z,136.00
2023-04-01T10:02:05.524Z,152.00
2023-04-01T10:03:05.448Z,136.00
2023-04-01T10:04:05.424Z,220.00
2023-04-01T10:05:05.580Z,212.00
2023-04-01T10:06:05.628Z,192.00
2023-04-01T10:07:05.406Z,180.00
2023-04-01T10:08:05.404Z,172.00
2023-04-01T10:09:05.412Z,248.00
2023-04-01T10:10:05.396Z,200.00
2023-04-01T10:11:05.391Z,228.00
2023-04-01T10:12:05.388Z,248.00
2023-04-01T10:13:05.408Z,236.00
2023-04-01T10:14:05.388Z,216.00
2023-04-01T10:15:05.382Z,232.00
2023-04-01T10:16:05.382Z,248.00
2023-04-01T10:17:05.369Z,260.00
2023-04-01T10:18:05.473Z,248.00
2023-04-01T10:19:05.364Z,204.00
2023-04-01T10:20:05.359Z,272.00
2023-04-01T10:21:05.360Z,200.00
2023-04-01T10:22:05.350Z,208.00
2023-04-01T10:23:05.345Z,200.00
2023-04-01T10:24:05.347Z,184.00
2023-04-01T10:25:06.300Z,160.00
2023-04-01T10:26:05.333Z,240.00
2023-04-01T10:27:05.328Z,180.00
2023-04-01T10:28:05.325Z,184.00
2023-04-01T10:29:05.342Z,188.00
2023-04-01T10:30:05.324Z,180.00
2023-04-01T10:31:05.323Z,196.00
2023-04-01T10:32:05.351Z,204.00
2023-04-01T10:33:05.335Z,176.00
2023-04-01T10:34:05.302Z,220.00
2023-04-01T10:35:05.301Z,184.00
2023-04-01T10:36:05.312Z,252.00
2023-04-01T10:37:05.288Z,192.00
2023-04-01T10:38:05.312Z,180.00
2023-04-01T10:39:05.303Z,188.00
2023-04-01T10:40:05.280Z,192.00
2023-04-01T10:41:05.276Z,224.00
2023-04-01T10:42:05.270Z,152.00
2023-04-01T10:43:05.269Z,172.00
2023-04-01T10:44:05.270Z,160.00
2023-04-01T10:45:05.281Z,144.00
2023-04-01T10:46:05.753Z,216.00
2023-04-01T10:47:05.264Z,216.00
2023-04-01T10:48:05.297Z,200.00
2023-04-01T10:49:05.242Z,288.00
2023-04-01T10:50:05.241Z,300.00
2023-04-01T10:51:05.235Z,216.00
2023-04-01T10:52:05.231Z,224.00
2023-04-01T10:53:07.154Z,216.00
2023-04-01T10:54:05.225Z,180.00
2023-04-01T10:55:05.229Z,196.00
2023-04-01T10:56:05.219Z,164.00
2023-04-01T10:57:05.304Z,216.00
2023-04-01T10:58:05.211Z,280.00
2023-04-01T10:59:05.205Z,280.00
2023-04-01T11:00:05.200Z,284.00
2023-04-01T11:01:05.270Z,268.00
2023-04-01T11:02:11.217Z,248.00
2023-04-01T11:03:05.275Z,276.00
2023-04-01T11:04:05.188Z,264.00
2023-04-01T11:05:05.185Z,300.00
2023-04-01T11:06:05.177Z,300.00
2023-04-01T11:07:05.172Z,296.00
2023-04-01T11:08:06.877Z,348.00
2023-04-01T11:09:05.167Z,368.00
2023-04-01T11:10:05.234Z,324.00
2023-04-01T11:11:05.170Z,328.00
2023-04-01T11:12:05.153Z,264.00
2023-04-01T11:13:05.156Z,300.00
2023-04-01T11:14:05.152Z,252.00
2023-04-01T11:15:05.146Z,264.00
2023-04-01T11:16:05.191Z,236.00
2023-04-01T11:17:05.208Z,220.00
2023-04-01T11:18:05.227Z,224.00
2023-04-01T11:19:05.142Z,180.00
2023-04-01T11:20:05.135Z,180.00
2023-04-01T11:21:05.130Z,172.00
2023-04-01T11:22:05.116Z,176.00
2023-04-01T11:23:05.113Z,224.00
2023-04-01T11:24:06.084Z,212.00
2023-04-01T11:25:05.121Z,220.00
2023-04-01T11:26:05.103Z,228.00
2023-04-01T11:27:05.175Z,180.00
2023-04-01T11:28:05.093Z,168.00
2023-04-01T11:29:05.092Z,184.00
2023-04-01T11:30:05.097Z,136.00
2023-04-01T11:31:05.130Z,152.00
2023-04-01T11:32:05.077Z,188.00
2023-04-01T11:33:05.171Z,184.00
2023-04-01T11:34:05.087Z,168.00
2023-04-01T11:35:05.067Z,156.00
2023-04-01T11:36:05.081Z,180.00
2023-04-01T11:37:05.069Z,192.00
2023-04-01T11:38:05.073Z,212.00
2023-04-01T11:39:05.055Z,196.00
2023-04-01T11:40:05.047Z,220.00
2023-04-01T11:41:05.071Z,192.00
2023-04-01T11:42:05.056Z,280.00
2023-04-01T11:43:05.039Z,268.00
2023-04-01T11:44:05.032Z,288.00
2023-04-01T11:45:05.039Z,332.00
2023-04-01T11:46:05.074Z,324.00
2023-04-01T11:47:05.376Z,236.00
2023-04-01T11:48:05.056Z,288.00
2023-04-01T11:49:05.038Z,304.00
2023-04-01T11:50:05.031Z,276.00
2023-04-01T11:51:05.013Z,316.00
2023-04-01T11:52:05.000Z,272.00
2023-04-01T11:53:04.998Z,328.00
2023-04-01T11:54:05.003Z,400.00
2023-04-01T11:55:04.993Z,360.00
2023-04-01T11:56:04.992Z,340.00
2023-04-01T11:57:05.052Z,340.00
2023-04-01T11:58:04.979Z,260.00
2023-04-01T11:59:04.978Z,244.00
2023-04-01T12:00:04.975Z,272.00
2023-04-01T12:01:04.983Z,284.00
2023-04-01T12:02:04.963Z,268.00
2023-04-01T12:03:05.059Z,304.00
2023-04-01T12:04:05.103Z,368.00
2023-04-01T12:05:04.974Z,364.00
2023-04-01T12:06:04.957Z,396.00
2023-04-01T12:07:04.951Z,372.00
2023-04-01T12:08:04.941Z,328.00
2023-04-01T12:09:04.938Z,316.00
2023-04-01T12:10:04.936Z,340.00
2023-04-01T12:11:04.938Z,336.00
2023-04-01T12:12:04.923Z,340.00
2023-04-01T12:13:04.923Z,412.00
2023-04-01T12:14:04.917Z,308.00
2023-04-01T12:15:04.918Z,336.00
2023-04-01T12:16:04.929Z,328.00
2023-04-01T12:17:04.918Z,376.00
2023-04-01T12:18:05.023Z,404.00
2023-04-01T12:19:04.901Z,384.00
2023-04-01T12:20:04.898Z,344.00
2023-04-01T12:21:04.913Z,356.00
2023-04-01T12:22:04.891Z,388.00
2023-04-01T12:23:04.898Z,296.00
2023-04-01T12:24:04.881Z,300.00
2023-04-01T12:25:04.879Z,300.00
2023-04-01T12:26:04.886Z,252.00
2023-04-01T12:27:04.874Z,224.00
2023-04-01T12:28:04.866Z,228.00
2023-04-01T12:29:04.865Z,224.00
2023-04-01T12:30:04.861Z,248.00
2023-04-01T12:31:04.863Z,260.00
2023-04-01T12:32:04.898Z,300.00
2023-04-01T12:33:04.920Z,248.00
2023-04-01T12:34:04.860Z,316.00
2023-04-01T12:35:04.958Z,336.00
2023-04-01T12:36:04.861Z,264.00
2023-04-01T12:37:04.851Z,248.00
2023-04-01T12:38:04.831Z,284.00
2023-04-01T12:39:04.827Z,256.00
2023-04-01T12:40:04.828Z,252.00
2023-04-01T12:41:04.827Z,296.00
2023-04-01T12:42:04.818Z,272.00
2023-04-01T12:43:04.824Z,336.00
2023-04-01T12:44:04.815Z,288.00
2023-04-01T12:45:04.805Z,288.00
2023-04-01T12:46:04.836Z,244.00
2023-04-01T12:47:04.796Z,248.00
2023-04-01T12:48:04.811Z,292.00
2023-04-01T12:49:04.789Z,316.00
2023-04-01T12:50:04.792Z,268.00
2023-04-01T12:51:04.782Z,316.00
2023-04-01T12:52:05.227Z,336.00